Lone Jack, Missouri
Current Conditions -  °F | °C
As of 12:53 AM on Thursday 23 Oct 2014 (Local Time) from KLXT Reporting Station
Clear Clear  
Wind Chill: 59°   Ceiling: Unl
Heat Index: 59°   Visibility: 10mi
Dew Point: 48°   Wind: 10mph
Humidity: 67%   Direction: 170°S
Pressure: 30.12"   Gusts: NA
Location:  38.87°N, 94.17°W
Report Text: KLXT 230553Z AUTO 17009KT 10SM CLR 15/09 A3012 RMK AO2 SLP195 T01500089 10189 20150 402220111 58005
Loading
Personal Weather Stations






























Interactive Weather Map
Tropical Storm Tracking
New forecast layout! Learn more

10-Day Weather Forecast

Advertisements
Track Severe Weather on mobile